createdAt,value
2019-03-18T00:01:29.516Z,92.19
2019-03-18T00:04:01.336Z,92.48
2019-03-18T00:06:33.190Z,91.84
2019-03-18T00:09:05.714Z,92.73
2019-03-18T00:11:37.530Z,92.53
2019-03-18T00:14:09.479Z,92.39
2019-03-18T00:16:41.567Z,93.51
2019-03-18T00:19:13.252Z,93.72
2019-03-18T00:21:45.304Z,93.59
2019-03-18T00:24:16.928Z,93.27
2019-03-18T00:26:48.843Z,92.33
2019-03-18T00:29:20.472Z,90.81
2019-03-18T00:31:52.061Z,90.89
2019-03-18T00:34:23.914Z,90.89
2019-03-18T00:36:55.838Z,91.21
2019-03-18T00:39:30.565Z,91.29
2019-03-18T00:42:02.267Z,90.09
2019-03-18T00:44:34.472Z,90.88
2019-03-18T00:47:06.032Z,91.19
2019-03-18T00:49:41.022Z,90.62
2019-03-18T00:52:14.315Z,90.35
2019-03-18T00:54:46.016Z,90.58
2019-03-18T00:57:17.748Z,90.87
2019-03-18T00:59:52.948Z,90.80
2019-03-18T01:02:24.561Z,90.87
2019-03-18T01:04:56.334Z,91.42
2019-03-18T01:07:28.071Z,91.43
2019-03-18T01:09:59.785Z,91.49
2019-03-18T01:12:31.434Z,91.66
2019-03-18T01:15:03.060Z,91.96
2019-03-18T01:17:34.710Z,92.19
2019-03-18T01:20:13.845Z,92.31
2019-03-18T01:22:45.533Z,92.57
2019-03-18T01:25:17.250Z,92.89
2019-03-18T01:27:48.855Z,93.32
2019-03-18T01:30:28.123Z,94.02
2019-03-18T01:32:59.742Z,94.32
2019-03-18T01:35:31.365Z,94.80
2019-03-18T01:38:03.013Z,95.50
2019-03-18T01:40:37.401Z,96.47
2019-03-18T01:43:09.064Z,97.36
2019-03-18T01:45:41.333Z,97.91
2019-03-18T01:48:12.875Z,97.78
2019-03-18T01:50:44.545Z,96.22
2019-03-18T01:53:16.311Z,96.54
2019-03-18T01:55:50.690Z,96.53
2019-03-18T01:58:22.326Z,95.79
2019-03-18T02:00:54.143Z,95.61
2019-03-18T02:03:25.892Z,95.83
2019-03-18T02:05:57.447Z,95.77
2019-03-18T02:08:29.081Z,96.09
2019-03-18T02:11:09.697Z,96.12
2019-03-18T02:13:41.303Z,97.25
2019-03-18T02:16:12.890Z,96.64
2019-03-18T02:18:44.545Z,96.55
2019-03-18T02:21:22.688Z,96.09
2019-03-18T02:23:54.390Z,96.12
2019-03-18T02:26:26.066Z,96.62
2019-03-18T02:28:57.637Z,97.32
2019-03-18T02:31:29.288Z,97.02
2019-03-18T02:34:01.143Z,97.68
2019-03-18T02:36:32.982Z,98.25
2019-03-18T02:39:05.679Z,99.54
2019-03-18T02:41:40.708Z,100.00
2019-03-18T02:44:12.431Z,99.35
2019-03-18T02:46:44.195Z,99.07
2019-03-18T02:49:15.859Z,98.89
2019-03-18T02:51:47.295Z,98.79
2019-03-18T02:54:19.046Z,98.56
2019-03-18T02:56:50.713Z,98.47
2019-03-18T02:59:22.448Z,97.61
2019-03-18T03:01:57.201Z,97.40
2019-03-18T03:04:28.783Z,97.09
2019-03-18T03:07:00.499Z,96.73
2019-03-18T03:09:32.484Z,96.22
2019-03-18T03:12:14.286Z,96.14
2019-03-18T03:14:46.069Z,95.92
2019-03-18T03:17:21.474Z,96.00
2019-03-18T03:19:50.982Z,96.37
2019-03-18T03:22:22.489Z,95.92
2019-03-18T03:24:54.314Z,96.28
2019-03-18T03:27:26.113Z,96.23
2019-03-18T03:29:59.443Z,96.47
2019-03-18T03:32:31.206Z,96.86
2019-03-18T03:35:02.737Z,96.94
2019-03-18T03:37:34.366Z,97.30
2019-03-18T03:40:06.118Z,97.31
2019-03-18T03:42:40.958Z,97.03
2019-03-18T03:45:13.457Z,97.17
2019-03-18T03:47:45.084Z,97.36
2019-03-18T03:50:16.805Z,97.67
2019-03-18T03:52:55.754Z,97.47
2019-03-18T03:55:27.365Z,97.82
2019-03-18T03:57:59.385Z,98.05
2019-03-18T04:00:30.947Z,98.37
2019-03-18T04:03:05.836Z,98.61
2019-03-18T04:05:37.660Z,98.39
2019-03-18T04:08:09.529Z,98.25
2019-03-18T04:10:41.205Z,98.18
2019-03-18T04:13:15.622Z,98.40
2019-03-18T04:15:47.543Z,98.86
2019-03-18T04:18:19.249Z,98.01
2019-03-18T04:20:51.338Z,99.04
2019-03-18T04:23:30.527Z,99.61
2019-03-18T04:26:02.205Z,99.92
2019-03-18T04:28:33.916Z,99.14
2019-03-18T04:31:05.731Z,98.85
2019-03-18T04:33:39.132Z,98.83
2019-03-18T04:36:11.207Z,98.68
2019-03-18T04:38:43.336Z,97.82
2019-03-18T04:41:15.107Z,97.24
2019-03-18T04:43:47.524Z,97.00
2019-03-18T04:46:19.137Z,96.34
2019-03-18T04:48:51.406Z,96.98
2019-03-18T04:51:23.051Z,97.36
2019-03-18T04:53:54.850Z,97.43
2019-03-18T04:56:26.672Z,97.52
2019-03-18T04:58:58.341Z,97.40
2019-03-18T05:01:29.974Z,97.21
2019-03-18T05:04:01.586Z,97.33
2019-03-18T05:06:33.424Z,97.13
2019-03-18T05:09:05.835Z,96.89
2019-03-18T05:11:37.540Z,97.24
2019-03-18T05:14:09.253Z,97.75
2019-03-18T05:16:40.902Z,96.90
2019-03-18T05:19:12.675Z,96.50
2019-03-18T05:21:44.320Z,95.87
2019-03-18T05:24:15.990Z,95.76
2019-03-18T05:26:47.570Z,94.81
2019-03-18T05:29:25.552Z,94.58
2019-03-18T05:31:57.136Z,94.10
2019-03-18T05:34:28.969Z,94.09
2019-03-18T05:37:00.799Z,92.98
2019-03-18T05:39:32.624Z,92.57
2019-03-18T05:42:04.263Z,92.39
2019-03-18T05:44:35.918Z,92.04
2019-03-18T05:47:07.553Z,92.15
2019-03-18T05:49:39.257Z,92.21
2019-03-18T05:52:11.121Z,91.81
2019-03-18T05:54:42.708Z,90.72
2019-03-18T05:57:14.512Z,89.01
2019-03-18T05:59:46.221Z,87.32
2019-03-18T06:02:17.921Z,87.91
2019-03-18T06:04:49.690Z,88.12
2019-03-18T06:07:21.380Z,87.73
2019-03-18T06:09:53.685Z,86.54
2019-03-18T06:12:25.448Z,84.94
2019-03-18T06:14:57.241Z,86.09
2019-03-18T06:17:28.969Z,88.99
2019-03-18T06:20:01.079Z,89.26
2019-03-18T06:22:32.866Z,88.91
2019-03-18T06:25:05.036Z,89.38
2019-03-18T06:27:36.961Z,90.00
2019-03-18T06:30:09.736Z,90.55
2019-03-18T06:32:41.694Z,90.31
2019-03-18T06:35:13.852Z,90.76
2019-03-18T06:37:46.210Z,90.58
2019-03-18T06:40:18.388Z,90.44
2019-03-18T06:42:50.046Z,90.44
2019-03-18T06:45:22.214Z,90.67
2019-03-18T06:48:04.328Z,91.20
2019-03-18T06:50:27.164Z,90.46
2019-03-18T06:52:58.965Z,90.84
2019-03-18T06:55:31.462Z,90.34
2019-03-18T06:58:03.327Z,90.38
2019-03-18T07:00:36.116Z,89.81
2019-03-18T07:03:07.919Z,89.79
2019-03-18T07:05:39.773Z,88.44
2019-03-18T07:08:11.694Z,88.34
2019-03-18T07:10:43.564Z,87.60
2019-03-18T07:13:15.959Z,85.80
2019-03-18T07:15:47.723Z,86.20
2019-03-18T07:18:19.695Z,85.18
2019-03-18T07:20:52.548Z,83.24
2019-03-18T07:23:24.356Z,82.20
2019-03-18T07:25:56.512Z,81.80
2019-03-18T07:28:28.275Z,81.63
2019-03-18T07:30:59.881Z,76.65
2019-03-18T07:33:31.559Z,77.64
2019-03-18T07:36:03.285Z,78.50
2019-03-18T07:38:35.244Z,79.70
2019-03-18T07:41:06.869Z,78.90
2019-03-18T07:43:38.487Z,78.49
2019-03-18T07:46:10.653Z,78.46
2019-03-18T07:48:42.364Z,77.35
2019-03-18T07:51:14.258Z,75.19
2019-03-18T07:53:46.253Z,74.14
2019-03-18T07:56:17.868Z,72.58
2019-03-18T07:58:49.650Z,64.46
2019-03-18T08:01:21.694Z,56.72
2019-03-18T08:03:53.592Z,60.06
2019-03-18T08:06:25.195Z,57.65
2019-03-18T08:08:56.864Z,56.39
2019-03-18T08:11:28.988Z,60.47
2019-03-18T08:14:00.922Z,60.01
2019-03-18T08:16:32.630Z,57.68
2019-03-18T08:19:04.293Z,59.24
2019-03-18T08:21:36.099Z,62.97
2019-03-18T08:24:07.976Z,63.66
2019-03-18T08:26:39.583Z,60.28
2019-03-18T08:29:11.500Z,69.53
2019-03-18T08:31:43.366Z,70.82
2019-03-18T08:34:15.119Z,72.44
2019-03-18T08:36:46.831Z,73.42
2019-03-18T08:39:19.338Z,74.31
2019-03-18T08:41:54.254Z,74.48
2019-03-18T08:44:27.070Z,74.58
2019-03-18T08:46:58.960Z,73.07
2019-03-18T08:49:31.287Z,73.29
2019-03-18T08:52:03.415Z,72.21
2019-03-18T08:54:36.010Z,71.63
2019-03-18T08:57:09.647Z,72.80
2019-03-18T08:59:42.220Z,73.56
2019-03-18T09:02:14.330Z,74.38
2019-03-18T09:04:47.892Z,72.61
2019-03-18T09:07:20.310Z,72.53
2019-03-18T09:09:53.648Z,72.97
2019-03-18T09:12:25.436Z,74.80
2019-03-18T09:14:58.507Z,73.71
2019-03-18T09:17:30.893Z,72.86
2019-03-18T09:20:02.704Z,72.96
2019-03-18T09:22:35.043Z,73.03
2019-03-18T09:25:07.268Z,74.43
2019-03-18T09:27:39.367Z,74.30
2019-03-18T09:30:13.265Z,74.84
2019-03-18T09:32:45.979Z,75.79
2019-03-18T09:35:18.176Z,76.03
2019-03-18T09:37:50.168Z,75.71
2019-03-18T09:40:22.071Z,76.59
2019-03-18T09:42:54.053Z,77.09
2019-03-18T09:45:25.955Z,77.06
2019-03-18T09:47:59.637Z,77.18
2019-03-18T09:50:31.613Z,76.56
2019-03-18T09:53:03.281Z,77.25
2019-03-18T09:55:35.262Z,77.66
2019-03-18T09:58:07.551Z,77.66
2019-03-18T10:00:39.543Z,78.42
2019-03-18T10:03:11.476Z,78.97
2019-03-18T10:05:44.053Z,79.94
2019-03-18T10:08:17.001Z,80.10
2019-03-18T10:10:50.000Z,79.82
2019-03-18T10:13:21.676Z,79.54
2019-03-18T10:15:53.509Z,79.53
2019-03-18T10:18:25.332Z,78.89
2019-03-18T10:20:57.179Z,79.56
2019-03-18T10:23:29.596Z,80.02
2019-03-18T10:26:01.374Z,80.94
2019-03-18T10:28:33.456Z,84.20
2019-03-18T10:31:05.846Z,85.92
2019-03-18T10:33:37.620Z,86.20
2019-03-18T10:36:09.370Z,85.34
2019-03-18T10:38:41.333Z,84.55
2019-03-18T10:41:13.329Z,84.48
2019-03-18T10:43:45.670Z,85.87
2019-03-18T10:46:17.562Z,86.66
2019-03-18T10:48:49.762Z,87.67
2019-03-18T10:59:03.969Z,92.96
2019-03-18T11:01:35.797Z,95.05
2019-03-18T11:04:07.914Z,96.59
2019-03-18T11:06:40.426Z,96.54
2019-03-18T11:09:12.238Z,96.20
2019-03-18T11:11:43.865Z,97.34
2019-03-18T11:14:15.816Z,97.52
2019-03-18T11:16:48.512Z,95.22
2019-03-18T11:19:20.336Z,92.06
2019-03-18T11:21:52.225Z,92.79
2019-03-18T11:24:23.964Z,92.68
2019-03-18T11:26:55.996Z,92.60
2019-03-18T11:29:27.952Z,92.33
2019-03-18T11:31:59.757Z,92.75
2019-03-18T11:34:31.528Z,92.12
2019-03-18T11:37:03.063Z,92.35
2019-03-18T11:39:34.747Z,91.88
2019-03-18T11:42:07.014Z,90.74
2019-03-18T11:44:38.625Z,88.85
2019-03-18T11:47:10.994Z,86.71
2019-03-18T11:49:43.077Z,85.90
2019-03-18T11:52:14.962Z,83.67
2019-03-18T11:54:46.717Z,81.10
2019-03-18T11:57:18.848Z,77.52
2019-03-18T11:59:50.877Z,74.18
2019-03-18T12:02:27.531Z,74.28
2019-03-18T12:04:57.717Z,73.55
2019-03-18T12:07:30.870Z,74.36
2019-03-18T12:10:02.628Z,71.76
2019-03-18T12:12:35.002Z,67.35
2019-03-18T12:15:07.375Z,69.29
2019-03-18T12:17:39.090Z,69.93
2019-03-18T12:20:23.467Z,70.96
2019-03-18T12:22:45.432Z,71.27
2019-03-18T12:25:17.412Z,68.56
2019-03-18T12:27:49.109Z,66.58
2019-03-18T12:30:21.210Z,64.80
2019-03-18T12:32:53.097Z,61.75
2019-03-18T12:35:24.982Z,63.28
2019-03-18T12:37:57.173Z,65.76
2019-03-18T12:40:28.923Z,63.64
2019-03-18T12:43:00.942Z,65.47
2019-03-18T12:45:32.856Z,66.39
2019-03-18T12:48:04.681Z,66.20
2019-03-18T12:50:49.739Z,66.66
2019-03-18T12:53:10.085Z,64.49
2019-03-18T12:55:42.289Z,63.88
2019-03-18T12:58:14.426Z,63.71
2019-03-18T13:00:46.144Z,64.23
2019-03-18T13:03:17.824Z,64.37
2019-03-18T13:05:49.459Z,63.53
2019-03-18T13:08:21.320Z,61.56
2019-03-18T13:10:53.240Z,60.17
2019-03-18T13:13:25.004Z,60.74
2019-03-18T13:15:56.491Z,61.32
2019-03-18T13:18:28.139Z,60.26
2019-03-18T13:21:07.760Z,60.98
2019-03-18T13:23:33.431Z,61.06
2019-03-18T13:26:05.328Z,61.14
2019-03-18T13:28:37.055Z,59.78
2019-03-18T13:31:08.872Z,55.02
2019-03-18T13:33:41.780Z,54.30
2019-03-18T13:36:14.393Z,53.36
2019-03-18T13:38:46.336Z,55.62
2019-03-18T13:41:18.803Z,56.11
2019-03-18T13:43:50.737Z,56.39
2019-03-18T13:46:22.516Z,56.13
2019-03-18T13:48:54.626Z,57.06
2019-03-18T13:51:26.375Z,51.44
2019-03-18T13:53:58.261Z,46.98
2019-03-18T13:56:30.242Z,46.81
2019-03-18T13:59:03.752Z,49.92
2019-03-18T14:01:51.861Z,50.11
2019-03-18T14:04:37.500Z,50.51
2019-03-18T14:07:22.253Z,50.22
2019-03-18T14:09:57.944Z,49.24
2019-03-18T14:12:32.642Z,45.49
2019-03-18T14:15:11.773Z,42.81
2019-03-18T14:17:45.773Z,40.60
2019-03-18T14:20:27.646Z,40.06
2019-03-18T14:23:14.183Z,40.09
2019-03-18T14:26:31.236Z,40.82
2019-03-18T14:29:17.098Z,39.05
2019-03-18T14:31:59.333Z,35.77
2019-03-18T14:34:41.662Z,37.11
2019-03-18T14:37:17.023Z,37.32
2019-03-18T14:39:52.039Z,38.04
2019-03-18T14:42:30.031Z,35.60
2019-03-18T14:45:04.593Z,35.88
2019-03-18T14:47:43.634Z,36.10
2019-03-18T14:50:29.453Z,38.00
2019-03-18T14:53:13.714Z,36.84
2019-03-18T14:56:01.381Z,39.07
2019-03-18T14:58:54.518Z,38.03
2019-03-18T15:01:33.714Z,40.13
2019-03-18T15:04:08.202Z,40.99
2019-03-18T15:06:46.184Z,40.96
2019-03-18T15:09:38.732Z,41.25
2019-03-18T15:12:19.549Z,42.57
2019-03-18T15:14:57.667Z,42.87
2019-03-18T15:17:42.537Z,43.91
2019-03-18T15:20:24.800Z,44.92
2019-03-18T15:23:05.120Z,45.55
2019-03-18T15:25:51.767Z,45.26
2019-03-18T15:28:32.887Z,45.20
2019-03-18T15:31:13.383Z,45.32
2019-03-18T15:34:01.188Z,45.54
2019-03-18T15:36:50.408Z,44.88
2019-03-18T15:39:36.270Z,45.11
2019-03-18T15:42:15.731Z,45.25
2019-03-18T15:44:53.741Z,44.46
2019-03-18T15:47:35.324Z,43.59
2019-03-18T15:50:12.863Z,45.08
2019-03-18T15:52:45.896Z,45.51
2019-03-18T15:55:19.742Z,46.75
2019-03-18T15:57:53.495Z,45.62
2019-03-18T16:00:26.893Z,43.48
2019-03-18T16:03:02.037Z,45.32
2019-03-18T16:05:36.000Z,46.54
2019-03-18T16:08:09.468Z,46.10
2019-03-18T16:10:43.470Z,46.46
2019-03-18T16:13:17.951Z,46.33
2019-03-18T16:15:53.461Z,46.01
2019-03-18T16:18:28.486Z,45.93
2019-03-18T16:21:03.491Z,46.32
2019-03-18T16:23:45.202Z,46.25
2019-03-18T16:26:22.535Z,47.01
2019-03-18T16:29:03.878Z,48.10
2019-03-18T16:31:41.686Z,48.44
2019-03-18T16:34:21.523Z,48.61
2019-03-18T16:37:02.486Z,48.77
2019-03-18T16:39:42.280Z,49.33
2019-03-18T16:42:37.466Z,50.30
2019-03-18T16:45:20.268Z,50.44
2019-03-18T16:48:13.471Z,50.92
2019-03-18T16:50:54.126Z,53.02
2019-03-18T16:53:33.579Z,63.73
2019-03-18T16:56:12.584Z,67.22
2019-03-18T16:58:53.582Z,69.38
2019-03-18T17:01:38.926Z,73.67
2019-03-18T17:04:14.071Z,76.12
2019-03-18T17:06:47.591Z,77.38
2019-03-18T17:09:22.197Z,78.61
2019-03-18T17:11:58.027Z,79.77
2019-03-18T17:14:32.143Z,81.08
2019-03-18T17:17:18.746Z,81.96
2019-03-18T17:19:54.747Z,82.47
2019-03-18T17:22:30.643Z,82.69
2019-03-18T17:25:05.453Z,83.61
2019-03-18T17:27:39.340Z,84.89
2019-03-18T17:30:21.114Z,85.22
2019-03-18T17:32:57.175Z,84.05
2019-03-18T17:35:35.912Z,84.16
2019-03-18T17:38:14.360Z,84.14
2019-03-18T17:40:54.469Z,84.26
2019-03-18T17:43:35.096Z,84.39
2019-03-18T17:46:13.978Z,85.17
2019-03-18T17:48:54.644Z,85.59
2019-03-18T17:51:33.366Z,86.25
2019-03-18T17:54:10.851Z,87.24
2019-03-18T17:56:45.586Z,87.54
2019-03-18T17:59:22.253Z,87.82
2019-03-18T18:01:58.500Z,88.50
2019-03-18T18:04:34.652Z,89.41
2019-03-18T18:07:13.184Z,90.18
2019-03-18T18:09:49.540Z,90.85
2019-03-18T18:12:27.777Z,90.84
2019-03-18T18:15:04.470Z,91.31
2019-03-18T18:17:42.669Z,91.88
2019-03-18T18:20:18.012Z,92.23
2019-03-18T18:22:52.583Z,92.07
2019-03-18T18:25:28.678Z,92.29
2019-03-18T18:28:07.140Z,92.83
2019-03-18T18:30:44.349Z,93.24
2019-03-18T18:33:21.835Z,93.72
2019-03-18T18:36:03.403Z,94.67
2019-03-18T18:38:38.353Z,95.59
2019-03-18T18:41:16.654Z,96.21
2019-03-18T18:43:54.793Z,96.55
2019-03-18T18:46:31.405Z,96.99
2019-03-18T18:49:05.265Z,96.85
2019-03-18T18:51:38.561Z,96.99
2019-03-18T18:54:13.346Z,97.04
2019-03-18T18:56:47.343Z,97.17
2019-03-18T18:59:41.400Z,97.18
2019-03-18T19:02:14.479Z,97.17
2019-03-18T19:04:48.523Z,96.53
2019-03-18T19:07:23.643Z,96.12
2019-03-18T19:09:56.672Z,96.06
2019-03-18T19:12:30.173Z,96.12
2019-03-18T19:15:03.674Z,96.17
2019-03-18T19:17:39.132Z,95.99
2019-03-18T19:20:14.198Z,96.16
2019-03-18T19:22:48.477Z,96.49
2019-03-18T19:25:22.238Z,96.37
2019-03-18T19:27:57.331Z,96.23
2019-03-18T19:30:32.427Z,95.93
2019-03-18T19:33:07.034Z,95.14
2019-03-18T19:35:40.482Z,94.33
2019-03-18T19:38:14.742Z,93.43
2019-03-18T19:40:49.479Z,92.74
2019-03-18T19:43:25.840Z,92.21
2019-03-18T19:46:00.205Z,91.98
2019-03-18T19:48:34.460Z,91.79
2019-03-18T19:51:10.053Z,91.43
2019-03-18T19:53:49.340Z,90.39
2019-03-18T19:56:24.781Z,89.79
2019-03-18T19:59:02.042Z,89.44
2019-03-18T20:01:39.385Z,88.80
2019-03-18T20:04:20.315Z,88.45
2019-03-18T20:06:55.075Z,88.16
2019-03-18T20:09:30.102Z,87.91
2019-03-18T20:12:04.065Z,87.71
2019-03-18T20:14:38.686Z,87.37
2019-03-18T20:17:15.095Z,87.49
2019-03-18T20:19:49.673Z,87.68
2019-03-18T20:22:23.945Z,87.14
2019-03-18T20:24:59.160Z,85.73
2019-03-18T20:27:33.912Z,85.52
2019-03-18T20:30:10.802Z,84.40
2019-03-18T20:32:51.950Z,83.98
2019-03-18T20:35:30.347Z,83.42
2019-03-18T20:38:06.904Z,82.85
2019-03-18T20:40:44.229Z,82.77
2019-03-18T20:43:19.553Z,82.30
2019-03-18T20:45:55.327Z,82.46
2019-03-18T20:48:29.631Z,82.73
2019-03-18T20:51:06.124Z,83.00
2019-03-18T20:53:44.350Z,83.00
2019-03-18T20:56:20.410Z,84.04
2019-03-18T20:58:55.970Z,84.54
2019-03-18T21:01:30.796Z,85.13
2019-03-18T21:04:04.383Z,85.35
2019-03-18T21:06:38.287Z,85.53
2019-03-18T21:09:12.587Z,86.09
2019-03-18T21:11:47.379Z,87.20
2019-03-18T21:14:23.107Z,88.27
2019-03-18T21:17:01.931Z,88.75
2019-03-18T21:19:35.380Z,89.54
2019-03-18T21:22:09.261Z,91.27
2019-03-18T21:24:43.555Z,92.88
2019-03-18T21:27:20.162Z,94.17
2019-03-18T21:29:54.284Z,95.18
2019-03-18T21:32:28.754Z,95.75
2019-03-18T21:35:03.586Z,96.97
2019-03-18T21:37:37.675Z,97.58
2019-03-18T21:40:14.027Z,98.10
2019-03-18T21:42:49.420Z,98.77
2019-03-18T21:45:24.036Z,99.55
2019-03-18T21:48:00.067Z,100.00
2019-03-18T21:50:40.745Z,100.00
2019-03-18T21:53:14.621Z,100.00
2019-03-18T21:55:51.516Z,100.00
2019-03-18T21:58:25.975Z,100.00
2019-03-18T22:01:00.209Z,100.00
2019-03-18T22:03:34.547Z,100.00
2019-03-18T22:06:08.779Z,100.00
2019-03-18T22:08:43.695Z,100.00
2019-03-18T22:11:21.893Z,100.00
2019-03-18T22:13:59.823Z,100.00
2019-03-18T22:16:39.451Z,100.00
2019-03-18T22:19:18.829Z,100.00
2019-03-18T22:21:57.228Z,100.00
2019-03-18T22:24:44.874Z,100.00
2019-03-18T22:27:15.198Z,100.00
2019-03-18T22:29:50.808Z,100.00
2019-03-18T22:32:26.561Z,100.00
2019-03-18T22:35:03.118Z,100.00
2019-03-18T22:37:37.363Z,100.00
2019-03-18T22:40:12.903Z,100.00
2019-03-18T22:42:48.615Z,100.00
2019-03-18T22:45:24.019Z,100.00
2019-03-18T22:47:58.910Z,100.00
2019-03-18T22:50:34.499Z,100.00
2019-03-18T22:53:10.651Z,100.00
2019-03-18T22:55:47.534Z,100.00
2019-03-18T22:58:23.535Z,100.00
2019-03-18T23:01:26.005Z,100.00
2019-03-18T23:04:00.114Z,100.00
2019-03-18T23:06:33.872Z,100.00
2019-03-18T23:09:15.374Z,100.00
2019-03-18T23:11:51.069Z,100.00
2019-03-18T23:14:27.223Z,100.00
2019-03-18T23:17:03.759Z,100.00
2019-03-18T23:19:39.801Z,100.00
2019-03-18T23:22:25.443Z,100.00
2019-03-18T23:25:07.551Z,100.00
2019-03-18T23:27:42.794Z,100.00
2019-03-18T23:30:20.473Z,100.00
2019-03-18T23:33:03.328Z,100.00
2019-03-18T23:35:42.035Z,100.00
2019-03-18T23:38:20.653Z,100.00
2019-03-18T23:41:00.295Z,100.00
2019-03-18T23:43:46.403Z,100.00
2019-03-18T23:46:25.402Z,100.00
2019-03-18T23:49:13.999Z,100.00
2019-03-18T23:51:55.481Z,100.00
2019-03-18T23:54:39.878Z,100.00
2019-03-18T23:57:17.815Z,100.00
